sensor_id;sensor_type;location;lat;lon;timestamp;P1;durP1;ratioP1;P2;durP2;ratioP2
32329;SDS011;18807;52.434;13.238;2023-06-10T00:07:23;12.18;;;5.00;;
32329;SDS011;18807;52.434;13.238;2023-06-10T00:14:58;5.20;;;4.03;;
32329;SDS011;18807;52.434;13.238;2023-06-10T00:22:33;5.82;;;4.18;;
32329;SDS011;18807;52.434;13.238;2023-06-10T00:30:08;8.40;;;5.00;;
32329;SDS011;18807;52.434;13.238;2023-06-10T00:37:44;7.47;;;4.60;;
32329;SDS011;18807;52.434;13.238;2023-06-10T00:45:18;7.43;;;4.03;;
32329;SDS011;18807;52.434;13.238;2023-06-10T00:52:54;7.65;;;4.68;;
32329;SDS011;18807;52.434;13.238;2023-06-10T01:00:29;7.28;;;4.32;;
32329;SDS011;18807;52.434;13.238;2023-06-10T01:08:21;6.57;;;4.45;;
32329;SDS011;18807;52.434;13.238;2023-06-10T01:16:03;5.28;;;3.60;;
32329;SDS011;18807;52.434;13.238;2023-06-10T01:23:39;5.80;;;3.65;;
32329;SDS011;18807;52.434;13.238;2023-06-10T01:31:15;6.00;;;3.85;;
32329;SDS011;18807;52.434;13.238;2023-06-10T01:38:54;7.07;;;4.47;;
32329;SDS011;18807;52.434;13.238;2023-06-10T01:46:30;8.20;;;4.70;;
32329;SDS011;18807;52.434;13.238;2023-06-10T01:54:05;8.65;;;4.45;;
32329;SDS011;18807;52.434;13.238;2023-06-10T02:01:39;6.03;;;3.97;;
32329;SDS011;18807;52.434;13.238;2023-06-10T02:09:15;6.75;;;3.60;;
32329;SDS011;18807;52.434;13.238;2023-06-10T02:16:51;9.10;;;4.10;;
32329;SDS011;18807;52.434;13.238;2023-06-10T02:24:31;4.85;;;3.60;;
32329;SDS011;18807;52.434;13.238;2023-06-10T02:32:06;5.72;;;4.55;;
32329;SDS011;18807;52.434;13.238;2023-06-10T02:39:44;9.00;;;4.50;;
32329;SDS011;18807;52.434;13.238;2023-06-10T02:47:37;8.02;;;4.63;;
32329;SDS011;18807;52.434;13.238;2023-06-10T02:55:12;6.15;;;3.92;;
32329;SDS011;18807;52.434;13.238;2023-06-10T03:02:46;7.28;;;4.10;;
32329;SDS011;18807;52.434;13.238;2023-06-10T03:10:22;8.33;;;4.70;;
32329;SDS011;18807;52.434;13.238;2023-06-10T03:17:57;8.48;;;4.68;;
32329;SDS011;18807;52.434;13.238;2023-06-10T03:25:32;7.85;;;4.15;;
32329;SDS011;18807;52.434;13.238;2023-06-10T03:33:07;9.43;;;4.28;;
32329;SDS011;18807;52.434;13.238;2023-06-10T03:40:42;6.50;;;4.45;;
32329;SDS011;18807;52.434;13.238;2023-06-10T03:48:16;11.52;;;4.93;;
32329;SDS011;18807;52.434;13.238;2023-06-10T03:55:52;8.43;;;4.77;;
32329;SDS011;18807;52.434;13.238;2023-06-10T04:03:26;5.32;;;4.25;;
32329;SDS011;18807;52.434;13.238;2023-06-10T04:11:02;5.95;;;3.83;;
32329;SDS011;18807;52.434;13.238;2023-06-10T04:18:37;12.00;;;5.30;;
32329;SDS011;18807;52.434;13.238;2023-06-10T04:26:12;7.68;;;4.57;;
32329;SDS011;18807;52.434;13.238;2023-06-10T04:33:46;14.38;;;5.05;;
32329;SDS011;18807;52.434;13.238;2023-06-10T04:41:22;10.07;;;5.20;;
32329;SDS011;18807;52.434;13.238;2023-06-10T04:49:13;9.52;;;5.32;;
32329;SDS011;18807;52.434;13.238;2023-06-10T04:56:49;10.68;;;5.18;;
32329;SDS011;18807;52.434;13.238;2023-06-10T05:04:23;9.63;;;6.38;;
32329;SDS011;18807;52.434;13.238;2023-06-10T05:11:58;8.10;;;6.05;;
32329;SDS011;18807;52.434;13.238;2023-06-10T05:19:32;7.05;;;4.97;;
32329;SDS011;18807;52.434;13.238;2023-06-10T05:27:09;14.80;;;7.22;;
32329;SDS011;18807;52.434;13.238;2023-06-10T05:34:43;9.75;;;6.03;;
32329;SDS011;18807;52.434;13.238;2023-06-10T05:42:19;7.13;;;5.53;;
32329;SDS011;18807;52.434;13.238;2023-06-10T05:49:53;11.38;;;6.25;;
32329;SDS011;18807;52.434;13.238;2023-06-10T05:57:28;10.25;;;5.95;;
32329;SDS011;18807;52.434;13.238;2023-06-10T06:05:03;6.85;;;5.60;;
32329;SDS011;18807;52.434;13.238;2023-06-10T06:12:39;9.75;;;6.75;;
32329;SDS011;18807;52.434;13.238;2023-06-10T06:20:13;9.95;;;6.88;;
32329;SDS011;18807;52.434;13.238;2023-06-10T06:27:52;11.32;;;6.55;;
32329;SDS011;18807;52.434;13.238;2023-06-10T06:35:26;10.32;;;7.22;;
32329;SDS011;18807;52.434;13.238;2023-06-10T06:43:02;15.65;;;7.40;;
32329;SDS011;18807;52.434;13.238;2023-06-10T06:50:36;10.50;;;7.25;;
32329;SDS011;18807;52.434;13.238;2023-06-10T06:58:28;12.55;;;7.55;;
32329;SDS011;18807;52.434;13.238;2023-06-10T07:06:03;11.95;;;6.53;;
32329;SDS011;18807;52.434;13.238;2023-06-10T07:13:38;13.45;;;8.02;;
32329;SDS011;18807;52.434;13.238;2023-06-10T07:21:12;16.58;;;8.73;;
32329;SDS011;18807;52.434;13.238;2023-06-10T07:28:48;10.67;;;7.00;;
32329;SDS011;18807;52.434;13.238;2023-06-10T07:36:22;11.43;;;7.50;;
32329;SDS011;18807;52.434;13.238;2023-06-10T07:44:01;13.93;;;8.52;;
32329;SDS011;18807;52.434;13.238;2023-06-10T07:51:35;10.23;;;9.18;;
32329;SDS011;18807;52.434;13.238;2023-06-10T07:59:10;15.68;;;9.40;;
32329;SDS011;18807;52.434;13.238;2023-06-10T08:06:44;9.15;;;7.57;;
32329;SDS011;18807;52.434;13.238;2023-06-10T08:14:20;11.63;;;10.43;;
32329;SDS011;18807;52.434;13.238;2023-06-10T08:21:55;10.88;;;8.38;;
32329;SDS011;18807;52.434;13.238;2023-06-10T08:29:31;12.57;;;9.52;;
32329;SDS011;18807;52.434;13.238;2023-06-10T08:37:06;9.70;;;8.10;;
32329;SDS011;18807;52.434;13.238;2023-06-10T08:44:42;11.20;;;7.97;;
32329;SDS011;18807;52.434;13.238;2023-06-10T08:52:19;10.38;;;8.60;;
32329;SDS011;18807;52.434;13.238;2023-06-10T08:59:55;10.43;;;9.32;;
32329;SDS011;18807;52.434;13.238;2023-06-10T09:07:31;9.98;;;8.98;;
32329;SDS011;18807;52.434;13.238;2023-06-10T09:15:09;13.10;;;8.63;;
32329;SDS011;18807;52.434;13.238;2023-06-10T09:22:44;11.85;;;9.07;;
32329;SDS011;18807;52.434;13.238;2023-06-10T09:30:27;11.83;;;8.43;;
32329;SDS011;18807;52.434;13.238;2023-06-10T09:38:02;9.57;;;8.57;;
32329;SDS011;18807;52.434;13.238;2023-06-10T09:45:37;12.65;;;9.35;;
32329;SDS011;18807;52.434;13.238;2023-06-10T09:53:11;10.75;;;8.60;;
32329;SDS011;18807;52.434;13.238;2023-06-10T10:00:49;12.20;;;8.50;;
32329;SDS011;18807;52.434;13.238;2023-06-10T10:08:26;10.35;;;8.65;;
32329;SDS011;18807;52.434;13.238;2023-06-10T10:16:03;9.13;;;7.80;;
32329;SDS011;18807;52.434;13.238;2023-06-10T10:23:42;12.63;;;8.40;;
32329;SDS011;18807;52.434;13.238;2023-06-10T10:31:25;13.00;;;8.73;;
32329;SDS011;18807;52.434;13.238;2023-06-10T10:39:04;11.27;;;8.05;;
32329;SDS011;18807;52.434;13.238;2023-06-10T10:46:43;9.93;;;6.67;;
32329;SDS011;18807;52.434;13.238;2023-06-10T10:54:17;10.82;;;8.65;;
32329;SDS011;18807;52.434;13.238;2023-06-10T11:01:53;9.50;;;7.07;;
32329;SDS011;18807;52.434;13.238;2023-06-10T11:09:30;8.77;;;6.43;;
32329;SDS011;18807;52.434;13.238;2023-06-10T11:17:07;7.20;;;6.50;;
32329;SDS011;18807;52.434;13.238;2023-06-10T11:24:52;13.90;;;5.57;;
32329;SDS011;18807;52.434;13.238;2023-06-10T11:32:30;6.88;;;5.38;;
32329;SDS011;18807;52.434;13.238;2023-06-10T11:40:06;7.22;;;5.85;;
32329;SDS011;18807;52.434;13.238;2023-06-10T11:47:56;8.02;;;6.88;;
32329;SDS011;18807;52.434;13.238;2023-06-10T11:55:41;7.78;;;7.05;;
32329;SDS011;18807;52.434;13.238;2023-06-10T12:03:17;10.90;;;7.80;;
32329;SDS011;18807;52.434;13.238;2023-06-10T12:10:51;8.20;;;7.40;;
32329;SDS011;18807;52.434;13.238;2023-06-10T12:18:27;8.68;;;7.85;;
32329;SDS011;18807;52.434;13.238;2023-06-10T12:26:02;8.85;;;7.45;;
32329;SDS011;18807;52.434;13.238;2023-06-10T12:33:37;7.35;;;6.55;;
32329;SDS011;18807;52.434;13.238;2023-06-10T12:41:12;10.38;;;7.22;;
32329;SDS011;18807;52.434;13.238;2023-06-10T12:48:51;9.30;;;6.85;;
32329;SDS011;18807;52.434;13.238;2023-06-10T12:56:27;7.88;;;7.15;;
32329;SDS011;18807;52.434;13.238;2023-06-10T13:04:02;8.93;;;7.28;;
32329;SDS011;18807;52.434;13.238;2023-06-10T13:11:38;8.48;;;7.57;;
32329;SDS011;18807;52.434;13.238;2023-06-10T13:26:48;10.23;;;9.10;;
32329;SDS011;18807;52.434;13.238;2023-06-10T13:34:24;11.73;;;8.55;;
32329;SDS011;18807;52.434;13.238;2023-06-10T13:41:58;9.77;;;8.88;;
32329;SDS011;18807;52.434;13.238;2023-06-10T13:49:33;9.97;;;8.57;;
32329;SDS011;18807;52.434;13.238;2023-06-10T13:57:08;10.60;;;8.93;;
32329;SDS011;18807;52.434;13.238;2023-06-10T14:04:43;9.93;;;9.02;;
32329;SDS011;18807;52.434;13.238;2023-06-10T14:12:17;16.42;;;8.63;;
32329;SDS011;18807;52.434;13.238;2023-06-10T14:19:53;9.35;;;8.48;;
32329;SDS011;18807;52.434;13.238;2023-06-10T14:27:27;13.18;;;8.32;;
32329;SDS011;18807;52.434;13.238;2023-06-10T14:35:02;13.17;;;8.90;;
32329;SDS011;18807;52.434;13.238;2023-06-10T14:42:37;8.82;;;7.93;;
32329;SDS011;18807;52.434;13.238;2023-06-10T14:50:30;8.32;;;7.25;;
32329;SDS011;18807;52.434;13.238;2023-06-10T14:58:05;8.48;;;7.60;;
32329;SDS011;18807;52.434;13.238;2023-06-10T15:05:40;9.17;;;7.87;;
32329;SDS011;18807;52.434;13.238;2023-06-10T15:13:32;7.53;;;6.78;;
32329;SDS011;18807;52.434;13.238;2023-06-10T15:21:07;7.15;;;6.50;;
32329;SDS011;18807;52.434;13.238;2023-06-10T15:28:41;8.18;;;6.85;;
32329;SDS011;18807;52.434;13.238;2023-06-10T15:36:17;10.77;;;6.82;;
32329;SDS011;18807;52.434;13.238;2023-06-10T15:43:51;7.47;;;6.68;;
32329;SDS011;18807;52.434;13.238;2023-06-10T15:51:26;8.05;;;6.63;;
32329;SDS011;18807;52.434;13.238;2023-06-10T15:59:00;9.73;;;6.57;;
32329;SDS011;18807;52.434;13.238;2023-06-10T16:06:36;7.75;;;6.32;;
32329;SDS011;18807;52.434;13.238;2023-06-10T16:14:10;7.88;;;5.82;;
32329;SDS011;18807;52.434;13.238;2023-06-10T16:22:04;7.85;;;5.60;;
32329;SDS011;18807;52.434;13.238;2023-06-10T16:29:39;9.98;;;5.57;;
32329;SDS011;18807;52.434;13.238;2023-06-10T16:37:14;9.07;;;5.38;;
32329;SDS011;18807;52.434;13.238;2023-06-10T16:44:48;8.23;;;5.82;;
32329;SDS011;18807;52.434;13.238;2023-06-10T16:52:23;5.68;;;5.18;;
32329;SDS011;18807;52.434;13.238;2023-06-10T16:59:57;5.88;;;4.53;;
32329;SDS011;18807;52.434;13.238;2023-06-10T17:07:33;9.43;;;5.00;;
32329;SDS011;18807;52.434;13.238;2023-06-10T17:15:08;10.52;;;5.00;;
32329;SDS011;18807;52.434;13.238;2023-06-10T17:22:45;9.25;;;5.55;;
32329;SDS011;18807;52.434;13.238;2023-06-10T17:30:21;9.00;;;5.32;;
32329;SDS011;18807;52.434;13.238;2023-06-10T17:53:05;5.75;;;4.78;;
32329;SDS011;18807;52.434;13.238;2023-06-10T18:00:40;7.28;;;4.82;;
32329;SDS011;18807;52.434;13.238;2023-06-10T18:15:50;5.97;;;4.75;;
32329;SDS011;18807;52.434;13.238;2023-06-10T18:23:26;6.25;;;4.57;;
32329;SDS011;18807;52.434;13.238;2023-06-10T18:31:17;5.90;;;4.45;;
32329;SDS011;18807;52.434;13.238;2023-06-10T18:38:53;4.97;;;4.40;;
32329;SDS011;18807;52.434;13.238;2023-06-10T18:46:28;6.03;;;5.40;;
32329;SDS011;18807;52.434;13.238;2023-06-10T18:54:03;7.87;;;5.13;;
32329;SDS011;18807;52.434;13.238;2023-06-10T19:01:37;5.80;;;5.13;;
32329;SDS011;18807;52.434;13.238;2023-06-10T19:16:47;6.17;;;5.50;;
32329;SDS011;18807;52.434;13.238;2023-06-10T19:24:22;7.93;;;5.60;;
32329;SDS011;18807;52.434;13.238;2023-06-10T19:31:56;6.45;;;5.32;;
32329;SDS011;18807;52.434;13.238;2023-06-10T19:39:32;7.47;;;6.32;;
32329;SDS011;18807;52.434;13.238;2023-06-10T19:47:07;15.93;;;8.10;;
32329;SDS011;18807;52.434;13.238;2023-06-10T19:54:42;5.63;;;5.00;;
32329;SDS011;18807;52.434;13.238;2023-06-10T20:02:16;5.60;;;4.93;;
32329;SDS011;18807;52.434;13.238;2023-06-10T20:17:26;9.15;;;5.07;;
32329;SDS011;18807;52.434;13.238;2023-06-10T20:25:02;11.27;;;5.10;;
32329;SDS011;18807;52.434;13.238;2023-06-10T20:32:36;5.63;;;4.78;;
32329;SDS011;18807;52.434;13.238;2023-06-10T20:40:12;9.13;;;4.73;;
32329;SDS011;18807;52.434;13.238;2023-06-10T20:47:46;6.85;;;4.85;;
32329;SDS011;18807;52.434;13.238;2023-06-10T20:55:23;6.55;;;4.57;;
32329;SDS011;18807;52.434;13.238;2023-06-10T21:02:57;7.25;;;4.70;;
32329;SDS011;18807;52.434;13.238;2023-06-10T21:10:33;7.27;;;4.70;;
32329;SDS011;18807;52.434;13.238;2023-06-10T21:18:07;9.88;;;5.18;;
32329;SDS011;18807;52.434;13.238;2023-06-10T21:25:59;8.35;;;4.47;;
32329;SDS011;18807;52.434;13.238;2023-06-10T21:33:37;7.85;;;5.22;;
32329;SDS011;18807;52.434;13.238;2023-06-10T21:41:13;7.17;;;4.70;;
32329;SDS011;18807;52.434;13.238;2023-06-10T21:48:47;7.68;;;5.55;;
32329;SDS011;18807;52.434;13.238;2023-06-10T21:56:23;7.40;;;5.33;;
32329;SDS011;18807;52.434;13.238;2023-06-10T22:03:58;7.93;;;5.18;;
32329;SDS011;18807;52.434;13.238;2023-06-10T22:11:34;7.33;;;5.07;;
32329;SDS011;18807;52.434;13.238;2023-06-10T22:19:08;6.55;;;5.13;;
32329;SDS011;18807;52.434;13.238;2023-06-10T22:26:43;6.83;;;4.80;;
32329;SDS011;18807;52.434;13.238;2023-06-10T22:34:25;5.50;;;4.88;;
32329;SDS011;18807;52.434;13.238;2023-06-10T22:42:01;9.80;;;4.73;;
32329;SDS011;18807;52.434;13.238;2023-06-10T22:49:37;5.97;;;4.18;;
32329;SDS011;18807;52.434;13.238;2023-06-10T22:57:12;7.13;;;4.80;;
32329;SDS011;18807;52.434;13.238;2023-06-10T23:04:46;5.47;;;3.65;;
32329;SDS011;18807;52.434;13.238;2023-06-10T23:12:22;7.13;;;5.37;;
32329;SDS011;18807;52.434;13.238;2023-06-10T23:19:56;6.95;;;4.35;;
32329;SDS011;18807;52.434;13.238;2023-06-10T23:27:32;5.30;;;4.30;;
32329;SDS011;18807;52.434;13.238;2023-06-10T23:35:06;5.53;;;3.50;;
32329;SDS011;18807;52.434;13.238;2023-06-10T23:42:42;5.57;;;3.38;;
32329;SDS011;18807;52.434;13.238;2023-06-10T23:50:17;3.55;;;2.92;;
32329;SDS011;18807;52.434;13.238;2023-06-10T23:57:52;3.80;;;2.90;;
